Federal Heights, Colorado
Current Conditions -  °F | °C
As of 8:46 PM on Monday 22 Dec 2014 (Local Time) from KBJC Reporting Station
Broken Clouds Broken Clouds  
Wind Chill: 22°   Ceiling: 9000
Heat Index: 28°   Visibility: 10mi
Dew Point: 18°   Wind: 6mph
Humidity: 64%   Direction: 350°N
Pressure: 29.83"   Gusts: NA
Location:  39.9123°N, 105.004°W
Report Text: KBJC 230346Z 35005KT 10SM SCT070 BKN090 M02/M08 A2983
Loading
Personal Weather Stations






























Interactive Weather Map New forecast layout! Learn more

10-Day Weather Forecast

Advertisements
Track Severe Weather on mobile